createdAt,value
2022-07-29T00:00:32.387Z,13.42
2022-07-29T00:01:32.291Z,13.42
2022-07-29T00:02:33.296Z,13.42
2022-07-29T00:03:33.389Z,13.38
2022-07-29T00:04:36.562Z,13.38
2022-07-29T00:05:34.266Z,13.36
2022-07-29T00:06:34.526Z,13.39
2022-07-29T00:07:35.195Z,13.38
2022-07-29T00:08:35.413Z,13.36
2022-07-29T00:09:50.608Z,13.28
2022-07-29T00:10:39.351Z,13.28
2022-07-29T00:11:39.400Z,13.27
2022-07-29T00:12:39.734Z,13.26
2022-07-29T00:13:40.249Z,13.23
2022-07-29T00:14:40.562Z,13.2
2022-07-29T00:15:41.283Z,13.19
2022-07-29T00:16:41.626Z,13.16
2022-07-29T00:17:42.023Z,13.12
2022-07-29T00:18:42.229Z,13.13
2022-07-29T00:19:45.634Z,13.12
2022-07-29T00:20:43.367Z,13.12
2022-07-29T00:21:44.101Z,13.1
2022-07-29T00:22:44.367Z,13.04
2022-07-29T00:23:44.637Z,13.07
2022-07-29T00:24:45.031Z,13.1
2022-07-29T00:25:45.650Z,13.09
2022-07-29T00:26:45.874Z,13.03
2022-07-29T00:27:46.384Z,13.06
2022-07-29T00:28:46.694Z,13.06
2022-07-29T00:29:47.216Z,13.08
2022-07-29T00:30:47.829Z,13.1
2022-07-29T00:31:48.229Z,13.09
2022-07-29T00:32:48.595Z,13.09
2022-07-29T00:33:48.887Z,13.13
2022-07-29T00:34:49.415Z,13.13
2022-07-29T00:35:50.022Z,13.1
2022-07-29T00:36:50.227Z,13.16
2022-07-29T00:37:50.855Z,13.12
2022-07-29T00:38:52.191Z,13.15
2022-07-29T00:39:51.993Z,13.19
2022-07-29T00:40:52.202Z,13.21
2022-07-29T00:41:52.854Z,13.22
2022-07-29T00:42:53.757Z,13.2
2022-07-29T00:43:53.345Z,13.19
2022-07-29T00:44:53.866Z,13.15
2022-07-29T00:45:54.285Z,13.09
2022-07-29T00:46:54.853Z,13.09
2022-07-29T00:47:55.010Z,13.15
2022-07-29T00:48:55.681Z,13.17
2022-07-29T00:49:56.056Z,13.18
2022-07-29T00:50:59.140Z,13.14
2022-07-29T00:51:57.139Z,13.15
2022-07-29T00:52:57.304Z,13.11
2022-07-29T00:53:57.711Z,13.12
2022-07-29T00:54:58.856Z,13.17
2022-07-29T00:55:59.690Z,13.23
2022-07-29T00:57:02.791Z,13.24
2022-07-29T00:58:00.815Z,13.24
2022-07-29T00:59:01.126Z,13.25
2022-07-29T01:00:01.447Z,13.24
2022-07-29T01:01:01.760Z,13.27
2022-07-29T01:02:02.889Z,13.24
2022-07-29T01:03:02.694Z,13.25
2022-07-29T01:04:02.946Z,13.23
2022-07-29T01:05:05.574Z,13.24
2022-07-29T01:06:04.567Z,13.2
2022-07-29T01:07:05.179Z,13.23
2022-07-29T01:08:05.597Z,13.19
2022-07-29T01:09:05.511Z,13.2
2022-07-29T01:10:08.986Z,13.2
2022-07-29T01:11:06.835Z,13.18
2022-07-29T01:12:08.229Z,13.22
2022-07-29T01:13:08.550Z,13.23
2022-07-29T01:14:09.527Z,13.25
2022-07-29T01:15:09.695Z,13.26
2022-07-29T01:16:15.931Z,13.27
2022-07-29T01:17:27.154Z,13.25
2022-07-29T01:30:47.525Z,13.13
2022-07-29T01:34:54.403Z,13.12
2022-07-29T01:35:52.157Z,13.11
2022-07-29T01:40:04.569Z,13.12
2022-07-29T01:51:41.196Z,13.06
2022-07-29T01:52:43.775Z,13.06
2022-07-29T01:53:43.363Z,13.1
2022-07-29T01:54:46.760Z,13.07
2022-07-29T01:55:47.128Z,13.02
2022-07-29T01:56:48.616Z,13.04
2022-07-29T01:57:48.846Z,13.01
2022-07-29T01:58:49.351Z,12.94
2022-07-29T01:59:49.759Z,12.96
2022-07-29T02:00:51.501Z,12.98
2022-07-29T02:01:52.019Z,13.01
2022-07-29T02:02:54.993Z,12.98
2022-07-29T02:03:55.938Z,12.93
2022-07-29T02:04:55.529Z,12.94
2022-07-29T02:05:55.845Z,12.99
2022-07-29T02:06:58.122Z,12.98
2022-07-29T02:07:58.927Z,12.89
2022-07-29T02:08:59.539Z,12.88
2022-07-29T02:09:59.205Z,12.86
2022-07-29T02:11:00.586Z,12.87
2022-07-29T02:12:00.592Z,12.82
2022-07-29T02:13:00.598Z,12.81
2022-07-29T02:14:01.416Z,12.82
2022-07-29T02:15:01.634Z,12.81
2022-07-29T02:16:01.791Z,12.8
2022-07-29T02:17:03.075Z,12.76
2022-07-29T02:18:08.839Z,12.73
2022-07-29T02:19:04.010Z,12.69
2022-07-29T02:20:04.737Z,12.7
2022-07-29T02:21:04.018Z,12.7
2022-07-29T02:22:03.733Z,12.65
2022-07-29T02:23:04.663Z,12.64
2022-07-29T02:24:06.539Z,12.66
2022-07-29T02:25:06.604Z,12.6
2022-07-29T02:26:08.455Z,12.56
2022-07-29T02:27:09.487Z,12.55
2022-07-29T02:28:08.481Z,12.56
2022-07-29T02:29:09.874Z,12.55
2022-07-29T02:30:09.516Z,12.53
2022-07-29T02:31:10.141Z,12.51
2022-07-29T02:32:11.267Z,12.51
2022-07-29T02:33:13.217Z,12.49
2022-07-29T02:34:13.322Z,12.49
2022-07-29T02:35:13.745Z,12.49
2022-07-29T02:36:12.538Z,12.44
2022-07-29T02:37:13.847Z,12.44
2022-07-29T02:38:16.736Z,12.46
2022-07-29T02:39:16.224Z,12.41
2022-07-29T02:40:17.668Z,12.41
2022-07-29T02:41:19.738Z,12.4
2022-07-29T02:42:19.635Z,12.42
2022-07-29T02:43:20.246Z,12.39
2022-07-29T02:44:21.888Z,12.38
2022-07-29T02:45:19.757Z,12.36
2022-07-29T02:46:29.188Z,12.35
2022-07-29T02:47:28.053Z,12.34
2022-07-29T02:48:35.186Z,12.3
2022-07-29T02:50:35.851Z,12.24
2022-07-29T02:51:45.167Z,12.23
2022-07-29T02:52:51.493Z,12.28
2022-07-29T02:53:42.982Z,12.27
2022-07-29T02:54:53.023Z,12.26
2022-07-29T02:55:56.261Z,12.27
2022-07-29T02:56:50.335Z,12.3
2022-07-29T02:57:55.811Z,12.28
2022-07-29T02:58:59.564Z,12.22
2022-07-29T03:00:02.249Z,12.16
2022-07-29T03:01:04.187Z,12.13
2022-07-29T03:02:06.636Z,12.13
2022-07-29T03:03:07.632Z,12.18
2022-07-29T03:04:06.048Z,12.22
2022-07-29T03:05:09.173Z,12.24
2022-07-29T03:06:09.374Z,12.2
2022-07-29T03:07:14.047Z,12.26
2022-07-29T03:08:12.838Z,12.29
2022-07-29T03:09:14.275Z,12.34
2022-07-29T03:10:14.174Z,12.33
2022-07-29T03:11:14.754Z,12.3
2022-07-29T03:12:15.126Z,12.32
2022-07-29T03:13:15.111Z,12.37
2022-07-29T03:14:15.894Z,12.33
2022-07-29T03:15:15.844Z,12.31
2022-07-29T03:16:16.817Z,12.28
2022-07-29T03:17:16.373Z,12.21
2022-07-29T03:18:16.582Z,12.24
2022-07-29T03:19:18.374Z,12.31
2022-07-29T03:20:17.831Z,12.27
2022-07-29T03:21:17.927Z,12.34
2022-07-29T03:22:19.134Z,12.38
2022-07-29T03:25:24.205Z,12.41
2022-07-29T03:26:24.733Z,12.41
2022-07-29T03:27:25.149Z,12.41
2022-07-29T03:28:26.186Z,12.41
2022-07-29T03:29:33.803Z,12.34
2022-07-29T03:30:27.205Z,12.3
2022-07-29T03:31:27.262Z,12.3
2022-07-29T03:32:27.625Z,12.28
2022-07-29T03:33:28.165Z,12.27
2022-07-29T03:34:28.672Z,12.32
2022-07-29T03:35:29.395Z,12.3
2022-07-29T03:36:29.392Z,12.3
2022-07-29T03:37:30.015Z,12.27
2022-07-29T03:38:34.016Z,12.25
2022-07-29T03:39:36.378Z,12.22
2022-07-29T03:41:41.104Z,12.12
2022-07-29T03:42:43.769Z,12.15
2022-07-29T03:43:49.033Z,12.15
2022-07-29T03:44:45.320Z,12.1
2022-07-29T03:45:46.782Z,12.1
2022-07-29T03:46:45.805Z,12.16
2022-07-29T03:47:54.736Z,12.15
2022-07-29T03:48:49.423Z,12.15
2022-07-29T03:49:51.508Z,12.09
2022-07-29T03:50:51.525Z,12.1
2022-07-29T03:51:49.671Z,12.1
2022-07-29T03:52:50.697Z,12.02
2022-07-29T03:53:50.403Z,12.05
2022-07-29T03:54:51.114Z,12.07
2022-07-29T03:55:55.984Z,12.14
2022-07-29T03:56:55.234Z,12.17
2022-07-29T03:57:56.668Z,12.19
2022-07-29T03:58:55.605Z,12.17
2022-07-29T03:59:56.177Z,12.07
2022-07-29T04:00:56.383Z,12.06
2022-07-29T04:01:58.105Z,12.11
2022-07-29T04:02:57.856Z,12.07
2022-07-29T04:03:57.744Z,12.07
2022-07-29T04:04:57.738Z,12.07
2022-07-29T04:06:06.250Z,12.11
2022-07-29T04:06:58.786Z,12.2
2022-07-29T04:07:59.156Z,12.26
2022-07-29T04:08:59.626Z,12.24
2022-07-29T04:10:00.037Z,12.25
2022-07-29T04:11:01.571Z,12.2
2022-07-29T04:12:02.872Z,12.15
2022-07-29T04:13:02.598Z,12.14
2022-07-29T04:14:02.415Z,12.24
2022-07-29T04:15:05.094Z,12.07
2022-07-29T04:16:03.494Z,12.01
2022-07-29T04:17:04.779Z,12.07
2022-07-29T04:18:04.529Z,12.01
2022-07-29T04:19:04.489Z,12.05
2022-07-29T04:20:06.027Z,12.09
2022-07-29T04:21:05.336Z,12.14
2022-07-29T04:22:06.572Z,12.16
2022-07-29T04:23:06.772Z,12.17
2022-07-29T04:24:08.412Z,12.19
2022-07-29T04:25:08.220Z,12.15
2022-07-29T04:26:07.944Z,12.14
2022-07-29T04:27:08.633Z,12.13
2022-07-29T04:28:09.603Z,12.22
2022-07-29T04:29:09.391Z,12.26
2022-07-29T04:30:10.704Z,12.23
2022-07-29T04:31:11.004Z,12.26
2022-07-29T04:32:11.029Z,12.29
2022-07-29T04:33:11.769Z,12.32
2022-07-29T04:34:13.457Z,12.29
2022-07-29T04:35:12.194Z,12.29
2022-07-29T04:36:28.638Z,12.26
2022-07-29T04:37:17.444Z,12.3
2022-07-29T04:38:18.152Z,12.39
2022-07-29T04:39:22.684Z,12.48
2022-07-29T04:40:21.993Z,12.51
2022-07-29T04:41:21.116Z,12.52
2022-07-29T04:42:27.614Z,12.43
2022-07-29T04:43:26.031Z,12.51
2022-07-29T04:44:28.428Z,12.54
2022-07-29T04:45:26.779Z,12.42
2022-07-29T04:46:27.357Z,12.4
2022-07-29T04:47:27.508Z,12.5
2022-07-29T04:48:28.916Z,12.54
2022-07-29T04:49:28.463Z,12.55
2022-07-29T04:50:28.862Z,12.58
2022-07-29T04:51:29.173Z,12.56
2022-07-29T04:52:29.793Z,12.47
2022-07-29T04:53:30.224Z,12.44
2022-07-29T04:54:30.634Z,12.54
2022-07-29T04:55:30.945Z,12.56
2022-07-29T04:56:31.459Z,12.61
2022-07-29T04:57:32.187Z,12.62
2022-07-29T04:58:32.390Z,12.72
2022-07-29T04:59:32.654Z,12.86
2022-07-29T05:00:33.422Z,12.86
2022-07-29T05:01:33.427Z,12.8
2022-07-29T05:02:34.326Z,12.82
2022-07-29T05:03:34.373Z,12.61
2022-07-29T05:04:34.892Z,12.6
2022-07-29T05:05:35.427Z,12.73
2022-07-29T05:06:35.828Z,12.68
2022-07-29T05:07:36.161Z,12.68
2022-07-29T05:08:36.765Z,12.7
2022-07-29T05:09:37.279Z,12.7
2022-07-29T05:10:37.459Z,12.71
2022-07-29T05:11:37.797Z,12.72
2022-07-29T05:12:38.318Z,12.72
2022-07-29T05:13:46.143Z,12.68
2022-07-29T05:14:39.660Z,12.82
2022-07-29T05:15:40.080Z,12.84
2022-07-29T05:16:40.395Z,12.86
2022-07-29T05:17:40.906Z,12.99
2022-07-29T05:18:41.458Z,13.04
2022-07-29T05:19:41.769Z,13.05
2022-07-29T05:20:42.684Z,13.02
2022-07-29T05:21:42.475Z,12.98
2022-07-29T05:22:42.888Z,12.98
2022-07-29T05:23:43.403Z,13.09
2022-07-29T05:24:43.936Z,13.13
2022-07-29T05:25:45.027Z,13.19
2022-07-29T05:26:44.756Z,13.21
2022-07-29T05:27:45.286Z,13.19
2022-07-29T05:28:45.754Z,13.12
2022-07-29T05:29:46.127Z,13.19
2022-07-29T05:30:47.088Z,13.16
2022-07-29T05:31:46.945Z,13.19
2022-07-29T05:32:47.562Z,13.31
2022-07-29T05:33:47.712Z,13.39
2022-07-29T05:34:51.318Z,13.53
2022-07-29T05:35:49.343Z,13.6
2022-07-29T05:36:49.704Z,13.54
2022-07-29T05:37:50.213Z,13.55
2022-07-29T05:38:50.676Z,13.54
2022-07-29T05:39:57.228Z,13.59
2022-07-29T05:40:51.615Z,13.6
2022-07-29T05:41:52.258Z,13.67
2022-07-29T05:42:52.548Z,13.74
2022-07-29T05:43:52.877Z,13.7
2022-07-29T05:44:53.789Z,13.72
2022-07-29T05:45:54.068Z,13.59
2022-07-29T05:46:54.417Z,13.62
2022-07-29T05:47:54.850Z,13.62
2022-07-29T05:48:55.276Z,13.68
2022-07-29T05:49:55.763Z,13.78
2022-07-29T05:50:56.070Z,13.92
2022-07-29T05:51:56.491Z,13.98
2022-07-29T05:52:56.918Z,13.95
2022-07-29T05:53:57.273Z,13.94
2022-07-29T05:54:57.851Z,13.98
2022-07-29T05:55:58.570Z,14.12
2022-07-29T05:56:58.677Z,14.16
2022-07-29T05:57:59.097Z,14.32
2022-07-29T05:59:00.334Z,14.29
2022-07-29T06:00:00.844Z,14.19
2022-07-29T06:01:01.335Z,14.23
2022-07-29T06:02:01.684Z,14.23
2022-07-29T06:03:02.192Z,14.39
2022-07-29T06:04:02.708Z,14.49
2022-07-29T06:05:03.340Z,14.16
2022-07-29T06:06:03.400Z,14.07
2022-07-29T06:07:04.180Z,14.08
2022-07-29T06:08:05.211Z,14.07
2022-07-29T06:09:12.441Z,14.05
2022-07-29T06:10:06.449Z,14.02
2022-07-29T06:11:06.141Z,14.09
2022-07-29T06:12:06.868Z,14.21
2022-07-29T06:13:06.876Z,14.36
2022-07-29T06:14:07.390Z,14.44
2022-07-29T06:15:08.825Z,14.51
2022-07-29T06:16:08.345Z,14.37
2022-07-29T06:17:08.855Z,14.22
2022-07-29T06:18:09.481Z,14.17
2022-07-29T06:19:09.681Z,14.13
2022-07-29T06:20:11.116Z,14.11
2022-07-29T06:21:11.025Z,14.32
2022-07-29T06:22:10.926Z,14.41
2022-07-29T06:23:11.353Z,14.36
2022-07-29T06:24:12.783Z,14.42
2022-07-29T06:25:12.283Z,14.61
2022-07-29T06:26:12.896Z,14.7
2022-07-29T06:27:13.217Z,14.58
2022-07-29T06:28:13.828Z,14.73
2022-07-29T06:29:14.246Z,14.84
2022-07-29T06:30:14.560Z,14.83
2022-07-29T06:31:15.200Z,14.84
2022-07-29T06:32:15.493Z,14.94
2022-07-29T06:33:19.702Z,15.01
2022-07-29T06:34:17.742Z,14.98
2022-07-29T06:35:40.974Z,14.92
2022-07-29T06:36:20.444Z,14.85
2022-07-29T06:37:20.751Z,14.67
2022-07-29T06:38:33.949Z,14.64
2022-07-29T06:39:22.215Z,14.65
2022-07-29T06:40:22.563Z,14.69
2022-07-29T06:41:25.589Z,14.74
2022-07-29T06:42:23.545Z,14.63
2022-07-29T06:43:23.867Z,14.72
2022-07-29T06:44:24.477Z,14.84
2022-07-29T06:45:24.798Z,14.96
2022-07-29T06:46:26.394Z,15.14
2022-07-29T06:47:26.603Z,15.06
2022-07-29T06:48:27.070Z,15.12
2022-07-29T06:49:27.437Z,15.19
2022-07-29T06:50:27.815Z,15.43
2022-07-29T06:51:30.063Z,15.45
2022-07-29T06:52:28.734Z,15.51
2022-07-29T06:53:30.071Z,15.41
2022-07-29T06:54:29.672Z,15.38
2022-07-29T06:55:30.194Z,15.21
2022-07-29T06:56:31.729Z,15.14
2022-07-29T06:57:31.324Z,15.03
2022-07-29T06:58:31.851Z,15.01
2022-07-29T06:59:35.785Z,15.15
2022-07-29T07:00:33.578Z,15.27
2022-07-29T07:01:34.342Z,15.33
2022-07-29T07:02:34.590Z,15.23
2022-07-29T07:03:35.161Z,15.09
2022-07-29T07:04:35.479Z,15.19
2022-07-29T07:05:36.098Z,15.23
2022-07-29T07:06:36.917Z,15.48
2022-07-29T07:07:37.129Z,15.54
2022-07-29T07:08:37.439Z,15.54
2022-07-29T07:09:40.624Z,15.55
2022-07-29T07:10:38.785Z,15.47
2022-07-29T07:11:38.994Z,15.3
2022-07-29T07:12:39.666Z,15.26
2022-07-29T07:13:39.930Z,15.17
2022-07-29T07:14:40.548Z,15.13
2022-07-29T07:15:41.274Z,15.03
2022-07-29T07:16:41.495Z,15.09
2022-07-29T07:17:41.691Z,15.31
2022-07-29T07:18:42.523Z,15.54
2022-07-29T07:19:42.958Z,15.53
2022-07-29T07:20:44.283Z,15.35
2022-07-29T07:21:43.775Z,15.51
2022-07-29T07:22:44.194Z,15.56
2022-07-29T07:23:44.616Z,15.43
2022-07-29T07:24:45.224Z,15.46
2022-07-29T07:25:45.549Z,15.3
2022-07-29T07:26:46.489Z,15.16
2022-07-29T07:27:46.575Z,15.34
2022-07-29T07:28:46.787Z,15.45
2022-07-29T07:29:47.201Z,15.71
2022-07-29T07:30:48.048Z,15.94
2022-07-29T07:31:48.292Z,15.72
2022-07-29T07:32:48.963Z,15.75
2022-07-29T07:33:49.325Z,15.75
2022-07-29T07:34:49.695Z,15.99
2022-07-29T07:35:50.117Z,15.91
2022-07-29T07:36:50.529Z,15.81
2022-07-29T07:37:50.950Z,15.85
2022-07-29T07:38:51.570Z,15.93
2022-07-29T07:39:52.903Z,15.83
2022-07-29T07:40:52.500Z,15.96
2022-07-29T07:41:53.223Z,15.82
2022-07-29T07:42:53.438Z,15.9
2022-07-29T07:43:53.850Z,15.95
2022-07-29T07:45:12.424Z,15.83
2022-07-29T07:45:56.223Z,15.84
2022-07-29T07:46:56.736Z,15.94
2022-07-29T07:48:01.248Z,15.93
2022-07-29T07:49:01.885Z,15.94
2022-07-29T07:50:02.282Z,15.96
2022-07-29T07:51:02.915Z,15.99
2022-07-29T07:52:03.428Z,16.03
2022-07-29T07:53:03.841Z,16.14
2022-07-29T07:54:04.257Z,16.15
2022-07-29T07:55:05.084Z,16.31
2022-07-29T07:56:10.956Z,16.4
2022-07-29T07:57:09.401Z,16.61
2022-07-29T07:58:10.227Z,16.6
2022-07-29T07:59:10.025Z,16.65
2022-07-29T08:00:11.567Z,16.72
2022-07-29T08:01:11.302Z,16.86
2022-07-29T08:02:11.686Z,16.86
2022-07-29T08:03:17.083Z,16.74
2022-07-29T08:04:15.580Z,16.34
2022-07-29T08:05:15.907Z,16.07
2022-07-29T08:06:16.523Z,15.94
2022-07-29T08:07:16.946Z,16.06
2022-07-29T08:08:17.256Z,16.27
2022-07-29T08:09:28.780Z,16.5
2022-07-29T08:10:22.490Z,16.54
2022-07-29T08:11:22.913Z,16.73
2022-07-29T08:12:23.122Z,16.8
2022-07-29T08:13:25.994Z,16.62
2022-07-29T08:14:24.160Z,16.65
2022-07-29T08:15:24.782Z,16.62
2022-07-29T08:16:25.370Z,16.41
2022-07-29T08:17:25.504Z,16.66
2022-07-29T08:18:26.234Z,17.07
2022-07-29T08:19:26.336Z,16.86
2022-07-29T08:20:26.502Z,16.68
2022-07-29T08:21:26.856Z,16.46
2022-07-29T08:22:27.481Z,16.51
2022-07-29T08:23:31.494Z,16.68
2022-07-29T08:24:27.796Z,16.91
2022-07-29T08:25:28.124Z,17.16
2022-07-29T08:26:28.535Z,17.33
2022-07-29T08:27:44.538Z,17.32
2022-07-29T08:28:31.932Z,17.06
2022-07-29T08:29:32.449Z,16.9
2022-07-29T08:30:33.066Z,16.68
2022-07-29T08:31:33.130Z,16.53
2022-07-29T08:32:52.667Z,16.34
2022-07-29T08:33:35.643Z,16.36
2022-07-29T08:34:36.169Z,16.55
2022-07-29T08:35:36.671Z,16.66
2022-07-29T08:36:36.999Z,16.82
2022-07-29T08:37:37.317Z,16.99
2022-07-29T08:38:37.551Z,17.29
2022-07-29T08:39:38.140Z,17.49
2022-07-29T08:40:38.454Z,17.47
2022-07-29T08:41:38.870Z,17.08
2022-07-29T08:42:39.392Z,16.99
2022-07-29T08:43:41.240Z,16.98
2022-07-29T08:44:40.040Z,17.01
2022-07-29T08:46:45.874Z,16.97
2022-07-29T08:47:46.400Z,16.83
2022-07-29T08:48:46.599Z,16.86
2022-07-29T08:51:52.663Z,16.37
2022-07-29T08:52:56.549Z,16.28
2022-07-29T08:53:57.387Z,16.38
2022-07-29T08:55:03.635Z,16.34
2022-07-29T08:56:02.411Z,16.51
2022-07-29T08:57:03.134Z,16.78
2022-07-29T08:58:02.942Z,16.8
2022-07-29T08:59:05.311Z,16.73
2022-07-29T09:00:08.020Z,16.78
2022-07-29T09:01:04.795Z,16.97
2022-07-29T09:02:06.423Z,17.08
2022-07-29T09:03:09.319Z,17.26
2022-07-29T09:04:11.894Z,17.14
2022-07-29T09:05:09.963Z,17.08
2022-07-29T09:06:14.049Z,17.15
2022-07-29T09:07:15.293Z,17.13
2022-07-29T09:08:14.066Z,17.4
2022-07-29T09:09:13.810Z,17.48
2022-07-29T09:10:13.668Z,17.39
2022-07-29T09:11:14.904Z,17.35
2022-07-29T09:12:14.507Z,17.42
2022-07-29T09:13:17.279Z,17.5
2022-07-29T09:14:18.002Z,17.31
2022-07-29T09:15:19.139Z,17.6
2022-07-29T09:16:37.253Z,17.6
2022-07-29T09:20:26.942Z,18.12
2022-07-29T09:22:31.764Z,18.02
2022-07-29T09:23:29.418Z,17.74
2022-07-29T09:25:38.346Z,17.79
2022-07-29T09:26:38.044Z,17.63
2022-07-29T09:27:36.409Z,17.32
2022-07-29T09:28:43.287Z,17.03
2022-07-29T09:29:40.930Z,16.81
2022-07-29T09:30:54.866Z,16.69
2022-07-29T09:31:50.583Z,16.95
2022-07-29T09:33:46.894Z,17.36
2022-07-29T09:34:47.001Z,17.39
2022-07-29T09:35:57.056Z,17.7
2022-07-29T09:36:53.530Z,17.68
2022-07-29T09:37:51.636Z,17.57
2022-07-29T09:39:04.035Z,17.42
2022-07-29T09:39:56.613Z,17.46
2022-07-29T09:41:03.013Z,17.57
2022-07-29T09:42:00.575Z,17.8
2022-07-29T09:43:10.609Z,17.71
2022-07-29T09:44:03.453Z,17.86
2022-07-29T09:45:04.278Z,17.9
2022-07-29T09:46:16.843Z,18.09
2022-07-29T09:47:09.480Z,18.33
2022-07-29T09:49:14.475Z,18.16
2022-07-29T09:50:14.446Z,17.96
2022-07-29T09:51:24.146Z,18.02
2022-07-29T09:52:16.604Z,18.14
2022-07-29T09:55:20.411Z,18.62
2022-07-29T09:56:19.500Z,18.38
2022-07-29T09:57:30.844Z,18.46
2022-07-29T09:58:23.820Z,18.83
2022-07-29T09:59:24.021Z,18.72
2022-07-29T10:00:24.550Z,18.57
2022-07-29T10:01:30.691Z,18.52
2022-07-29T10:02:33.055Z,18.57
2022-07-29T10:03:30.400Z,18.65
2022-07-29T10:05:36.804Z,19.22
2022-07-29T10:06:36.153Z,18.81
2022-07-29T10:08:39.442Z,18.63
2022-07-29T10:09:40.278Z,18.73
2022-07-29T10:10:42.603Z,18.92
2022-07-29T10:11:49.319Z,18.77
2022-07-29T10:13:46.761Z,18.79
2022-07-29T10:14:45.011Z,18.71
2022-07-29T10:15:46.510Z,18.67
2022-07-29T10:16:45.782Z,18.94
2022-07-29T10:17:46.569Z,19.28
2022-07-29T10:18:46.479Z,19.09
2022-07-29T10:19:48.533Z,18.6
2022-07-29T10:20:47.110Z,18.58
2022-07-29T10:21:47.930Z,18.47
2022-07-29T10:22:53.728Z,18.5
2022-07-29T10:23:52.144Z,18.44
2022-07-29T10:24:51.844Z,18.68
2022-07-29T10:25:52.149Z,18.63
2022-07-29T10:26:54.717Z,18.47
2022-07-29T10:27:53.799Z,18.48
2022-07-29T10:28:53.506Z,18.26
2022-07-29T10:29:55.042Z,18.35
2022-07-29T10:42:33.905Z,18.91
2022-07-29T10:43:29.910Z,18.62
2022-07-29T10:44:26.181Z,18.56
2022-07-29T10:45:24.735Z,18.68
2022-07-29T10:46:26.350Z,19.01
2022-07-29T10:47:27.113Z,19.24
2022-07-29T10:48:26.038Z,18.92
2022-07-29T10:49:30.603Z,19.18
2022-07-29T10:50:28.864Z,19.72
2022-07-29T10:56:34.042Z,18.71
2022-07-29T10:57:54.151Z,18.99
2022-07-29T10:58:35.785Z,19.53
2022-07-29T10:59:36.676Z,19.85
2022-07-29T11:00:36.416Z,19.87
2022-07-29T11:01:39.142Z,19.43
2022-07-29T11:08:47.026Z,19.61
2022-07-29T11:10:49.903Z,19.67
2022-07-29T11:11:51.534Z,19.64
2022-07-29T11:12:49.701Z,19.35
2022-07-29T11:15:57.187Z,19.3
2022-07-29T11:22:11.577Z,20.06
2022-07-29T11:24:28.935Z,20.07
2022-07-29T11:25:50.370Z,20.18
2022-07-29T11:26:25.113Z,20.25
2022-07-29T11:28:30.957Z,20.07
2022-07-29T11:29:30.449Z,20.23
2022-07-29T11:33:55.871Z,19.53
2022-07-29T11:34:39.195Z,19.34
2022-07-29T11:35:39.963Z,19.22
2022-07-29T11:37:42.416Z,18.95
2022-07-29T11:38:43.615Z,18.77
2022-07-29T11:41:46.504Z,18.88
2022-07-29T11:42:47.341Z,18.6
2022-07-29T11:45:54.109Z,18.71
2022-07-29T11:46:55.347Z,18.48
2022-07-29T11:48:00.847Z,18.46
2022-07-29T11:49:00.766Z,18.47
2022-07-29T11:50:00.802Z,18.37
2022-07-29T11:51:00.477Z,18.28
2022-07-29T11:52:00.998Z,18.35
2022-07-29T11:53:01.537Z,18.34
2022-07-29T11:54:05.210Z,18.46
2022-07-29T11:55:09.825Z,18.44
2022-07-29T11:56:10.048Z,18.41
2022-07-29T11:57:09.035Z,18.38
2022-07-29T11:58:09.450Z,18.46
2022-07-29T11:59:09.145Z,18.46
2022-07-29T12:00:12.526Z,18.67
2022-07-29T12:01:16.533Z,18.59
2022-07-29T12:04:22.809Z,19.34
2022-07-29T12:06:24.446Z,19.74
2022-07-29T12:07:32.634Z,19.59
2022-07-29T12:08:27.843Z,19.34
2022-07-29T12:09:27.994Z,19.12
2022-07-29T12:10:33.286Z,19.18
2022-07-29T12:11:33.190Z,19.21
2022-07-29T12:12:34.015Z,18.99
2022-07-29T12:13:40.362Z,18.94
2022-07-29T12:14:37.823Z,18.8
2022-07-29T12:15:45.723Z,18.68
2022-07-29T12:16:39.307Z,18.73
2022-07-29T12:17:39.579Z,18.7
2022-07-29T12:18:40.209Z,18.69
2022-07-29T12:19:49.314Z,18.6
2022-07-29T12:20:43.893Z,18.67
2022-07-29T12:21:56.273Z,18.84
2022-07-29T12:22:44.719Z,19.07
2022-07-29T12:23:54.084Z,19.19
2022-07-29T12:24:48.134Z,19.15
2022-07-29T12:25:50.012Z,19.24
2022-07-29T12:26:57.970Z,19.54
2022-07-29T12:28:51.522Z,19.61
2022-07-29T12:30:54.611Z,18.93
2022-07-29T12:31:57.733Z,19.03
2022-07-29T12:32:55.953Z,19.17
2022-07-29T12:33:56.471Z,19.46
2022-07-29T12:34:56.585Z,19.56
2022-07-29T12:36:06.915Z,19.88
2022-07-29T12:37:00.436Z,19.88
2022-07-29T12:38:00.914Z,19.7
2022-07-29T12:39:01.474Z,19.77
2022-07-29T12:40:02.579Z,19.75
2022-07-29T12:41:04.318Z,20.06
2022-07-29T12:42:15.201Z,20.08
2022-07-29T12:43:18.243Z,20.29
2022-07-29T12:44:11.487Z,20.2
2022-07-29T12:45:11.803Z,20.05
2022-07-29T12:46:16.026Z,19.96
2022-07-29T12:47:13.873Z,19.88
2022-07-29T12:48:14.587Z,19.83
2022-07-29T12:49:23.474Z,19.73
2022-07-29T12:50:16.444Z,19.8
2022-07-29T12:51:16.565Z,19.61
2022-07-29T12:53:19.644Z,19.94
2022-07-29T12:54:19.852Z,20.25
2022-07-29T12:56:41.699Z,20.35
2022-07-29T12:57:23.047Z,20.01
2022-07-29T12:59:24.506Z,20.13
2022-07-29T13:00:25.502Z,20.26
2022-07-29T13:01:25.833Z,20.42
2022-07-29T13:02:26.042Z,20.38
2022-07-29T13:03:26.362Z,20.63
2022-07-29T13:06:51.083Z,20.33
2022-07-29T13:07:54.276Z,20.55
2022-07-29T13:08:37.159Z,20.4
2022-07-29T13:10:42.073Z,20.06
2022-07-29T13:14:05.878Z,19.58
2022-07-29T13:14:54.698Z,19.44
2022-07-29T13:16:08.482Z,19.32
2022-07-29T13:18:01.012Z,19.35
2022-07-29T13:19:12.335Z,19.32
2022-07-29T13:20:10.206Z,19.23
2022-07-29T13:21:16.566Z,19.16
2022-07-29T13:22:16.470Z,18.9
2022-07-29T13:23:16.673Z,18.84
2022-07-29T13:24:19.493Z,18.58
2022-07-29T13:25:28.878Z,18.49
2022-07-29T13:26:21.703Z,18.21
2022-07-29T13:27:30.735Z,17.86
2022-07-29T13:28:23.254Z,17.7
2022-07-29T13:29:23.683Z,17.66
2022-07-29T13:30:25.266Z,17.83
2022-07-29T13:31:24.605Z,17.89
2022-07-29T13:32:28.458Z,17.73
2022-07-29T13:33:26.664Z,17.65
2022-07-29T13:34:27.094Z,17.61
2022-07-29T13:35:27.497Z,17.68
2022-07-29T13:36:27.807Z,17.75
2022-07-29T13:37:28.127Z,17.73
2022-07-29T13:38:31.084Z,17.8
2022-07-29T13:39:28.966Z,17.8
2022-07-29T13:40:29.368Z,17.87
2022-07-29T13:41:30.506Z,17.95
2022-07-29T13:42:30.106Z,18
2022-07-29T13:43:30.518Z,18.12
2022-07-29T13:44:31.255Z,17.96
2022-07-29T13:45:31.249Z,17.95
2022-07-29T13:46:31.740Z,18.01
2022-07-29T13:47:33.350Z,17.85
2022-07-29T13:48:32.601Z,17.91
2022-07-29T13:49:32.915Z,17.83
2022-07-29T13:50:33.838Z,17.61
2022-07-29T13:51:33.646Z,17.38
2022-07-29T13:52:35.495Z,17.33
2022-07-29T13:53:36.827Z,17.31
2022-07-29T13:54:38.847Z,17.33
2022-07-29T13:55:39.401Z,17.34
2022-07-29T13:56:39.824Z,17.25
2022-07-29T13:57:40.233Z,17.35
2022-07-29T13:58:40.649Z,17.44
2022-07-29T13:59:41.956Z,17.39
2022-07-29T14:00:42.047Z,17.55
2022-07-29T14:01:41.918Z,17.56
2022-07-29T14:02:42.059Z,17.45
2022-07-29T14:03:45.784Z,17.4
2022-07-29T14:04:43.387Z,17.52
2022-07-29T14:05:44.191Z,17.52
2022-07-29T14:06:44.289Z,17.36
2022-07-29T14:07:44.804Z,17.4
2022-07-29T14:08:45.024Z,17.59
2022-07-29T14:09:45.634Z,17.69
2022-07-29T14:10:45.963Z,17.71
2022-07-29T14:11:46.266Z,17.66
2022-07-29T14:12:46.884Z,17.63
2022-07-29T14:13:47.104Z,17.81
2022-07-29T14:14:47.461Z,17.83
2022-07-29T14:15:47.722Z,17.65
2022-07-29T14:16:52.186Z,17.65
2022-07-29T14:17:50.091Z,17.89
2022-07-29T14:18:50.417Z,17.85
2022-07-29T14:19:50.829Z,17.8
2022-07-29T14:20:51.451Z,17.71
2022-07-29T14:21:51.493Z,17.83
2022-07-29T14:22:52.086Z,17.72
2022-07-29T14:23:52.645Z,17.72
2022-07-29T14:24:52.700Z,17.91
2022-07-29T14:25:53.624Z,17.64
2022-07-29T14:26:53.466Z,17.67
2022-07-29T14:27:53.957Z,17.71
2022-07-29T14:28:54.364Z,17.82
2022-07-29T14:29:54.573Z,17.92
2022-07-29T14:30:54.992Z,18.04
2022-07-29T14:31:56.129Z,17.92
2022-07-29T14:32:55.822Z,17.94
2022-07-29T14:33:59.911Z,17.86
2022-07-29T14:35:00.144Z,17.84
2022-07-29T14:36:01.057Z,17.83
2022-07-29T14:37:00.866Z,17.79
2022-07-29T14:38:01.280Z,17.81
2022-07-29T14:39:01.809Z,17.97
2022-07-29T14:40:02.632Z,18.24
2022-07-29T14:41:02.431Z,18.35
2022-07-29T14:42:03.164Z,18.2
2022-07-29T14:43:03.516Z,18.4
2022-07-29T14:44:04.190Z,18.65
2022-07-29T14:45:05.534Z,18.67
2022-07-29T14:46:08.390Z,18.37
2022-07-29T14:47:07.976Z,18.35
2022-07-29T14:48:07.035Z,18.33
2022-07-29T14:49:07.074Z,18.13
2022-07-29T14:50:08.790Z,18.03
2022-07-29T14:51:07.827Z,18.1